createdAt,value
2018-12-06T00:01:30.541Z,7.80
2018-12-06T00:03:58.853Z,7.70
2018-12-06T00:06:27.060Z,7.70
2018-12-06T00:08:55.337Z,7.80
2018-12-06T00:11:23.590Z,7.80
2018-12-06T00:13:52.226Z,7.80
2018-12-06T00:16:20.453Z,7.80
2018-12-06T00:18:59.097Z,7.80
2018-12-06T00:21:27.304Z,7.90
2018-12-06T00:23:55.520Z,7.90
2018-12-06T00:26:24.056Z,7.90
2018-12-06T00:28:52.266Z,8.00
2018-12-06T00:31:20.470Z,8.00
2018-12-06T00:33:48.692Z,8.00
2018-12-06T00:36:16.904Z,8.10
2018-12-06T00:38:45.112Z,8.00
2018-12-06T00:41:13.333Z,8.00
2018-12-06T00:43:41.568Z,8.00
2018-12-06T00:46:09.792Z,8.10
2018-12-06T00:48:38.084Z,8.00
2018-12-06T00:51:06.401Z,8.00
2018-12-06T00:53:34.603Z,8.10
2018-12-06T00:56:02.838Z,8.10
2018-12-06T00:58:31.057Z,8.10
2018-12-06T01:00:59.348Z,8.00
2018-12-06T01:03:27.590Z,8.00
2018-12-06T01:05:55.993Z,8.00
2018-12-06T01:08:24.198Z,8.00
2018-12-06T01:10:52.492Z,7.90
2018-12-06T01:13:20.828Z,7.90
2018-12-06T01:15:49.037Z,8.00
2018-12-06T01:18:17.358Z,8.00
2018-12-06T01:20:45.565Z,8.00
2018-12-06T01:23:13.777Z,8.00
2018-12-06T01:25:42.077Z,8.00
2018-12-06T01:28:10.344Z,8.00
2018-12-06T01:30:38.680Z,7.90
2018-12-06T01:33:07.269Z,7.90
2018-12-06T01:35:35.498Z,7.90
2018-12-06T01:38:03.809Z,7.90
2018-12-06T01:40:32.072Z,7.80
2018-12-06T01:43:00.294Z,7.90
2018-12-06T01:45:28.596Z,7.90
2018-12-06T01:47:57.167Z,7.90
2018-12-06T01:50:25.381Z,7.90
2018-12-06T01:52:53.588Z,7.90
2018-12-06T01:55:21.827Z,7.80
2018-12-06T01:57:50.036Z,7.90
2018-12-06T02:00:18.348Z,7.90
2018-12-06T02:02:46.666Z,8.00
2018-12-06T02:05:14.889Z,8.00
2018-12-06T02:07:43.098Z,8.00
2018-12-06T02:10:11.517Z,8.00
2018-12-06T02:12:39.731Z,8.00
2018-12-06T02:15:08.238Z,7.90
2018-12-06T02:17:36.511Z,7.90
2018-12-06T02:20:05.798Z,8.00
2018-12-06T02:22:34.378Z,8.00
2018-12-06T02:25:02.701Z,8.00
2018-12-06T02:27:30.908Z,8.00
2018-12-06T02:32:34.211Z,8.00
2018-12-06T02:35:02.508Z,8.00
2018-12-06T02:37:30.799Z,8.00
2018-12-06T02:39:59.017Z,8.10
2018-12-06T02:42:27.256Z,8.10
2018-12-06T02:44:55.657Z,8.20
2018-12-06T02:47:23.963Z,8.10
2018-12-06T02:49:52.177Z,8.20
2018-12-06T02:52:20.585Z,8.20
2018-12-06T02:54:48.808Z,8.20
2018-12-06T02:57:17.113Z,8.20
2018-12-06T02:59:45.416Z,8.20
2018-12-06T03:02:13.628Z,8.20
2018-12-06T03:04:41.860Z,8.20
2018-12-06T03:07:10.097Z,8.20
2018-12-06T03:09:38.401Z,8.20
2018-12-06T03:12:06.625Z,8.20
2018-12-06T03:14:34.922Z,8.20
2018-12-06T03:17:03.245Z,8.10
2018-12-06T03:19:31.538Z,8.10
2018-12-06T03:21:59.752Z,8.10
2018-12-06T03:24:28.009Z,8.10
2018-12-06T03:26:56.223Z,8.10
2018-12-06T03:29:24.473Z,8.10
2018-12-06T03:31:53.286Z,8.10
2018-12-06T03:34:21.593Z,8.10
2018-12-06T03:36:49.891Z,8.10
2018-12-06T03:39:20.522Z,8.00
2018-12-06T03:41:48.742Z,8.00
2018-12-06T03:44:17.042Z,8.10
2018-12-06T03:46:45.269Z,8.10
2018-12-06T03:49:13.676Z,8.00
2018-12-06T03:51:41.874Z,8.00
2018-12-06T03:54:10.291Z,8.00
2018-12-06T03:56:38.500Z,8.00
2018-12-06T03:59:06.716Z,8.00
2018-12-06T04:01:35.024Z,8.00
2018-12-06T04:04:03.240Z,8.00
2018-12-06T04:06:31.631Z,8.00
2018-12-06T04:09:00.083Z,8.00
2018-12-06T04:11:28.369Z,8.00
2018-12-06T04:13:56.589Z,8.00
2018-12-06T04:16:24.906Z,8.00
2018-12-06T04:18:53.473Z,7.90
2018-12-06T04:21:21.785Z,8.00
2018-12-06T04:23:50.101Z,8.00
2018-12-06T04:26:18.310Z,8.00
2018-12-06T04:28:46.599Z,8.10
2018-12-06T04:31:14.869Z,8.00
2018-12-06T04:33:43.100Z,8.00
2018-12-06T04:36:11.383Z,8.10
2018-12-06T04:38:39.622Z,8.10
2018-12-06T04:41:07.960Z,8.10
2018-12-06T04:43:36.316Z,8.10
2018-12-06T04:46:04.777Z,8.20
2018-12-06T04:48:33.056Z,8.20
2018-12-06T04:51:01.341Z,8.20
2018-12-06T04:53:29.594Z,8.30
2018-12-06T04:55:57.890Z,8.30
2018-12-06T04:58:26.102Z,8.30
2018-12-06T05:00:54.525Z,8.30
2018-12-06T05:03:22.815Z,8.30
2018-12-06T05:05:51.101Z,8.30
2018-12-06T05:08:19.693Z,8.40
2018-12-06T05:10:47.914Z,8.40
2018-12-06T05:13:16.219Z,8.40
2018-12-06T05:15:44.441Z,8.40
2018-12-06T05:18:12.659Z,8.50
2018-12-06T05:20:40.865Z,8.50
2018-12-06T05:23:09.153Z,8.50
2018-12-06T05:25:37.367Z,8.50
2018-12-06T05:28:05.645Z,8.50
2018-12-06T05:30:33.901Z,8.50
2018-12-06T05:33:02.125Z,8.50
2018-12-06T05:35:30.337Z,8.60
2018-12-06T05:37:58.604Z,8.60
2018-12-06T05:40:26.814Z,8.60
2018-12-06T05:42:55.070Z,8.70
2018-12-06T05:45:23.320Z,8.70
2018-12-06T05:47:51.616Z,8.70
2018-12-06T05:50:19.837Z,8.70
2018-12-06T05:52:48.141Z,8.70
2018-12-06T05:55:16.432Z,8.70
2018-12-06T05:57:44.873Z,8.80
2018-12-06T06:00:13.261Z,8.80
2018-12-06T06:02:41.486Z,8.80
2018-12-06T06:05:09.980Z,8.80
2018-12-06T06:07:38.214Z,8.80
2018-12-06T06:10:06.616Z,8.90
2018-12-06T06:12:34.829Z,8.90
2018-12-06T06:15:03.246Z,8.90
2018-12-06T06:17:31.453Z,8.90
2018-12-06T06:19:59.782Z,9.00
2018-12-06T06:22:28.010Z,9.00
2018-12-06T06:24:56.206Z,9.00
2018-12-06T06:27:26.219Z,9.10
2018-12-06T06:29:54.767Z,9.10
2018-12-06T06:32:23.045Z,9.10
2018-12-06T06:34:51.259Z,9.20
2018-12-06T06:37:19.544Z,9.20
2018-12-06T06:39:47.741Z,9.20
2018-12-06T06:42:16.016Z,9.30
2018-12-06T06:44:44.220Z,9.20
2018-12-06T06:47:12.412Z,9.30
2018-12-06T06:49:40.608Z,9.40
2018-12-06T06:52:08.832Z,9.40
2018-12-06T06:54:37.030Z,9.50
2018-12-06T06:57:05.325Z,9.50
2018-12-06T06:59:33.525Z,9.50
2018-12-06T07:02:01.829Z,9.60
2018-12-06T07:04:30.030Z,9.60
2018-12-06T07:06:58.266Z,9.70
2018-12-06T07:09:26.584Z,9.70
2018-12-06T07:11:54.856Z,9.70
2018-12-06T07:14:23.136Z,9.80
2018-12-06T07:16:51.555Z,9.80
2018-12-06T07:19:19.823Z,9.90
2018-12-06T07:21:48.129Z,9.90
2018-12-06T07:24:16.326Z,9.90
2018-12-06T07:26:44.703Z,9.90
2018-12-06T07:29:13.177Z,10.00
2018-12-06T07:31:41.519Z,10.10
2018-12-06T07:34:09.913Z,10.00
2018-12-06T07:36:38.117Z,10.10
2018-12-06T07:39:07.856Z,10.10
2018-12-06T07:41:36.161Z,10.10
2018-12-06T07:44:04.414Z,10.10
2018-12-06T07:46:32.704Z,10.10
2018-12-06T07:49:00.937Z,10.10
2018-12-06T07:51:29.140Z,10.20
2018-12-06T07:53:57.337Z,10.20
2018-12-06T07:56:25.537Z,10.20
2018-12-06T07:58:53.757Z,10.30
2018-12-06T08:01:21.956Z,10.30
2018-12-06T08:03:50.232Z,10.40
2018-12-06T08:06:18.541Z,10.30
2018-12-06T08:08:47.334Z,10.40
2018-12-06T08:11:15.601Z,10.40
2018-12-06T08:13:43.899Z,10.40
2018-12-06T08:16:12.176Z,10.40
2018-12-06T08:18:40.368Z,10.50
2018-12-06T08:21:08.588Z,10.50
2018-12-06T08:23:36.789Z,10.50
2018-12-06T08:26:05.080Z,10.50
2018-12-06T08:28:33.321Z,10.50
2018-12-06T08:31:01.532Z,10.60
2018-12-06T08:33:29.734Z,10.50
2018-12-06T08:35:58.053Z,10.50
2018-12-06T08:38:26.253Z,10.60
2018-12-06T08:40:54.486Z,10.60
2018-12-06T08:43:23.521Z,10.70
2018-12-06T08:45:52.461Z,10.70
2018-12-06T08:48:22.824Z,10.70
2018-12-06T08:50:52.235Z,10.80
2018-12-06T08:53:21.239Z,10.70
2018-12-06T08:55:50.105Z,10.70
2018-12-06T08:58:18.305Z,10.70
2018-12-06T09:00:47.392Z,10.70
2018-12-06T09:03:16.341Z,10.70
2018-12-06T09:05:44.644Z,10.70
2018-12-06T09:08:13.614Z,10.80
2018-12-06T09:10:41.954Z,10.70
2018-12-06T09:13:10.544Z,10.80
2018-12-06T09:15:39.253Z,10.80
2018-12-06T09:18:08.570Z,10.80
2018-12-06T09:20:36.877Z,10.80
2018-12-06T09:23:05.208Z,10.80
2018-12-06T09:25:33.408Z,10.80
2018-12-06T09:28:01.770Z,10.70
2018-12-06T09:30:30.056Z,10.70
2018-12-06T09:32:58.254Z,10.70
2018-12-06T09:35:26.592Z,10.80
2018-12-06T09:37:54.892Z,10.80
2018-12-06T09:40:23.096Z,10.90
2018-12-06T09:42:51.410Z,10.90
2018-12-06T09:45:19.701Z,10.90
2018-12-06T09:47:47.902Z,10.90
2018-12-06T09:50:16.180Z,11.00
2018-12-06T09:52:44.400Z,11.00
2018-12-06T09:55:12.809Z,11.00
2018-12-06T09:57:41.270Z,11.00
2018-12-06T10:00:11.713Z,11.00
2018-12-06T10:02:40.092Z,11.10
2018-12-06T10:05:08.552Z,11.10
2018-12-06T10:07:36.749Z,11.10
2018-12-06T10:10:05.157Z,11.20
2018-12-06T10:12:33.468Z,11.20
2018-12-06T10:15:01.661Z,11.20
2018-12-06T10:17:30.040Z,11.20
2018-12-06T10:19:58.333Z,11.20
2018-12-06T10:22:26.552Z,11.20
2018-12-06T10:24:54.757Z,11.20
2018-12-06T10:27:22.955Z,11.20
2018-12-06T10:29:51.162Z,11.30
2018-12-06T10:32:19.373Z,11.30
2018-12-06T10:34:53.399Z,11.30
2018-12-06T10:37:17.928Z,11.30
2018-12-06T10:39:46.137Z,11.30
2018-12-06T10:42:14.352Z,11.40
2018-12-06T10:44:42.549Z,11.40
2018-12-06T10:47:10.760Z,11.40
2018-12-06T10:49:39.233Z,11.40
2018-12-06T10:52:07.545Z,11.40
2018-12-06T10:54:35.850Z,11.40
2018-12-06T10:57:04.409Z,11.50
2018-12-06T10:59:32.588Z,11.50
2018-12-06T11:02:06.664Z,11.50
2018-12-06T11:04:35.329Z,11.60
2018-12-06T11:07:05.348Z,11.60
2018-12-06T11:09:34.043Z,11.60
2018-12-06T11:12:02.316Z,11.60
2018-12-06T11:14:30.633Z,11.60
2018-12-06T11:16:58.917Z,11.50
2018-12-06T11:19:27.134Z,11.60
2018-12-06T11:21:55.428Z,11.60
2018-12-06T11:24:23.648Z,11.60
2018-12-06T11:26:51.856Z,11.60
2018-12-06T11:29:20.200Z,11.60
2018-12-06T11:31:48.424Z,11.50
2018-12-06T11:34:16.737Z,11.50
2018-12-06T11:36:44.939Z,11.50
2018-12-06T11:39:13.367Z,11.50
2018-12-06T11:41:43.287Z,11.50
2018-12-06T11:44:12.940Z,11.50
2018-12-06T11:46:41.166Z,11.50
2018-12-06T11:49:09.373Z,11.50
2018-12-06T11:51:37.568Z,11.60
2018-12-06T11:54:05.785Z,11.60
2018-12-06T11:56:33.993Z,11.60
2018-12-06T11:59:02.202Z,11.50
2018-12-06T12:01:30.637Z,11.60
2018-12-06T12:03:59.019Z,11.50
2018-12-06T12:07:10.414Z,11.60
2018-12-06T12:09:38.617Z,11.60
2018-12-06T12:12:06.839Z,11.60
2018-12-06T12:14:35.229Z,11.70
2018-12-06T12:17:03.623Z,11.70
2018-12-06T12:19:32.261Z,11.70
2018-12-06T12:22:00.512Z,11.70
2018-12-06T12:24:28.738Z,11.90
2018-12-06T12:26:56.952Z,11.80
2018-12-06T12:29:25.269Z,11.90
2018-12-06T12:31:53.530Z,11.90
2018-12-06T12:34:21.832Z,11.90
2018-12-06T12:36:50.365Z,12.00
2018-12-06T12:39:19.830Z,12.10
2018-12-06T12:41:48.068Z,12.10
2018-12-06T12:44:16.290Z,12.10
2018-12-06T12:46:44.494Z,12.30
2018-12-06T12:49:12.722Z,12.30
2018-12-06T12:51:41.016Z,12.30
2018-12-06T12:54:09.228Z,12.30
2018-12-06T12:56:37.441Z,12.30
2018-12-06T12:59:05.657Z,12.40
2018-12-06T13:01:33.870Z,12.40
2018-12-06T13:04:02.156Z,12.40
2018-12-06T13:06:30.460Z,12.40
2018-12-06T13:08:58.668Z,12.40
2018-12-06T13:11:26.967Z,12.50
2018-12-06T13:13:55.189Z,12.50
2018-12-06T13:16:23.481Z,12.50
2018-12-06T13:18:51.693Z,12.60
2018-12-06T13:21:19.921Z,12.60
2018-12-06T13:23:48.136Z,12.60
2018-12-06T13:26:16.341Z,12.60
2018-12-06T13:28:44.610Z,12.60
2018-12-06T13:31:12.923Z,12.70
2018-12-06T13:33:41.137Z,12.70
2018-12-06T13:36:09.476Z,12.70
2018-12-06T13:38:37.873Z,12.80
2018-12-06T13:41:06.205Z,12.80
2018-12-06T13:43:34.432Z,12.80
2018-12-06T13:46:02.707Z,12.90
2018-12-06T13:48:31.029Z,12.90
2018-12-06T13:50:59.385Z,12.90
2018-12-06T13:53:27.748Z,13.00
2018-12-06T13:55:55.956Z,13.00
2018-12-06T13:58:24.230Z,13.00
2018-12-06T14:00:52.717Z,13.10
2018-12-06T14:03:21.220Z,13.10
2018-12-06T14:05:49.565Z,13.10
2018-12-06T14:08:17.773Z,13.00
2018-12-06T14:10:46.092Z,13.00
2018-12-06T14:13:14.347Z,13.00
2018-12-06T14:15:42.624Z,12.90
2018-12-06T14:18:10.840Z,12.90
2018-12-06T14:20:39.079Z,13.00
2018-12-06T14:23:07.357Z,13.00
2018-12-06T14:25:35.668Z,12.90
2018-12-06T14:28:03.989Z,13.00
2018-12-06T14:30:32.338Z,12.90
2018-12-06T14:33:00.641Z,12.90
2018-12-06T14:35:29.002Z,12.80
2018-12-06T14:37:57.237Z,12.90
2018-12-06T14:40:25.473Z,12.80
2018-12-06T14:42:54.029Z,12.90
2018-12-06T14:45:22.363Z,12.80
2018-12-06T14:47:50.574Z,12.80
2018-12-06T14:50:18.800Z,12.80
2018-12-06T14:52:47.038Z,12.80
2018-12-06T14:55:15.249Z,12.80
2018-12-06T14:57:43.476Z,12.70
2018-12-06T15:00:11.859Z,12.70
2018-12-06T15:02:40.168Z,12.70
2018-12-06T15:05:09.769Z,12.60
2018-12-06T15:07:38.072Z,12.70
2018-12-06T15:10:07.213Z,12.70
2018-12-06T15:12:35.452Z,12.60
2018-12-06T15:15:04.949Z,12.60
2018-12-06T15:17:33.354Z,12.60
2018-12-06T15:20:01.715Z,12.60
2018-12-06T15:22:30.014Z,12.60
2018-12-06T15:24:58.787Z,12.50
2018-12-06T15:27:27.187Z,12.50
2018-12-06T15:29:55.503Z,12.50
2018-12-06T15:32:23.795Z,12.50
2018-12-06T15:34:52.088Z,12.50
2018-12-06T15:37:20.412Z,12.50
2018-12-06T15:39:48.622Z,12.50
2018-12-06T15:42:16.844Z,12.40
2018-12-06T15:44:45.057Z,12.40
2018-12-06T15:47:13.272Z,12.40
2018-12-06T15:49:41.833Z,12.40
2018-12-06T15:52:10.244Z,12.30
2018-12-06T15:54:38.541Z,12.20
2018-12-06T15:57:06.788Z,12.10
2018-12-06T15:59:34.997Z,12.10
2018-12-06T16:02:03.318Z,12.00
2018-12-06T16:04:31.633Z,11.80
2018-12-06T16:06:59.856Z,11.80
2018-12-06T16:09:28.102Z,11.80
2018-12-06T16:11:57.409Z,11.70
2018-12-06T16:14:25.604Z,11.70
2018-12-06T16:16:53.839Z,11.50
2018-12-06T16:19:22.059Z,11.50
2018-12-06T16:21:50.288Z,11.50
2018-12-06T16:24:18.494Z,11.50
2018-12-06T16:26:46.717Z,11.40
2018-12-06T16:29:14.937Z,11.30
2018-12-06T16:31:43.232Z,11.30
2018-12-06T16:34:11.568Z,11.40
2018-12-06T16:36:40.076Z,11.40
2018-12-06T16:39:08.401Z,11.30
2018-12-06T16:41:36.671Z,11.40
2018-12-06T16:44:05.340Z,11.40
2018-12-06T16:46:33.669Z,11.30
2018-12-06T16:49:02.006Z,11.30
2018-12-06T16:51:30.296Z,11.20
2018-12-06T16:53:58.501Z,11.30
2018-12-06T16:56:26.825Z,11.20
2018-12-06T16:58:55.029Z,11.20
2018-12-06T17:01:23.347Z,11.20
2018-12-06T17:03:51.809Z,11.20
2018-12-06T17:06:20.024Z,11.30
2018-12-06T17:08:48.240Z,11.30
2018-12-06T17:11:16.562Z,11.40
2018-12-06T17:13:44.861Z,11.40
2018-12-06T17:16:13.073Z,11.30
2018-12-06T17:18:41.407Z,11.30
2018-12-06T17:21:09.634Z,11.30
2018-12-06T17:23:37.852Z,11.30
2018-12-06T17:26:06.169Z,11.30
2018-12-06T17:28:34.526Z,11.30
2018-12-06T17:31:02.746Z,11.30
2018-12-06T17:33:31.165Z,11.30
2018-12-06T17:35:59.472Z,11.30
2018-12-06T17:38:27.693Z,11.40
2018-12-06T17:40:55.940Z,11.40
2018-12-06T17:43:24.156Z,11.50
2018-12-06T17:45:52.372Z,11.50
2018-12-06T17:48:20.901Z,11.50
2018-12-06T17:50:49.112Z,11.60
2018-12-06T17:53:17.350Z,11.60
2018-12-06T17:55:54.076Z,11.70
2018-12-06T17:58:22.694Z,11.70
2018-12-06T18:00:50.900Z,11.70
2018-12-06T18:03:19.172Z,11.70
2018-12-06T18:05:47.393Z,11.70
2018-12-06T18:08:15.614Z,11.70
2018-12-06T18:10:43.945Z,11.70
2018-12-06T18:13:12.261Z,11.70
2018-12-06T18:15:40.490Z,11.70
2018-12-06T18:18:08.744Z,11.80
2018-12-06T18:20:37.192Z,11.70
2018-12-06T18:23:05.587Z,11.70
2018-12-06T18:25:34.192Z,11.70
2018-12-06T18:28:02.588Z,11.80
2018-12-06T18:30:30.843Z,11.80
2018-12-06T18:32:59.095Z,11.90
2018-12-06T18:35:27.325Z,11.80
2018-12-06T18:37:55.554Z,11.80
2018-12-06T18:40:23.869Z,11.90
2018-12-06T18:42:52.162Z,11.90
2018-12-06T18:45:20.490Z,11.90
2018-12-06T18:47:48.849Z,12.00
2018-12-06T18:50:17.086Z,12.00
2018-12-06T18:52:45.387Z,12.10
2018-12-06T18:55:13.696Z,12.00
2018-12-06T18:57:42.000Z,12.00
2018-12-06T19:00:11.675Z,12.00
2018-12-06T19:02:39.943Z,12.00
2018-12-06T19:05:08.329Z,12.00
2018-12-06T19:07:36.549Z,12.00
2018-12-06T19:10:05.506Z,11.90
2018-12-06T19:12:33.801Z,11.90
2018-12-06T19:15:02.125Z,11.90
2018-12-06T19:17:30.562Z,12.00
2018-12-06T19:19:58.861Z,12.00
2018-12-06T19:22:27.098Z,12.00
2018-12-06T19:24:55.408Z,12.00
2018-12-06T19:27:23.633Z,12.10
2018-12-06T19:29:51.872Z,12.00
2018-12-06T19:32:20.114Z,12.00
2018-12-06T19:34:48.639Z,12.10
2018-12-06T19:37:16.965Z,12.10
2018-12-06T19:39:45.204Z,12.10
2018-12-06T19:42:13.421Z,12.10
2018-12-06T19:44:41.655Z,12.10
2018-12-06T19:47:09.885Z,12.10
2018-12-06T19:49:38.190Z,12.10
2018-12-06T19:52:06.481Z,12.20
2018-12-06T19:54:34.808Z,12.20
2018-12-06T19:57:03.105Z,12.20
2018-12-06T19:59:31.640Z,12.30
2018-12-06T20:01:59.868Z,12.30
2018-12-06T20:04:28.158Z,12.30
2018-12-06T20:06:56.384Z,12.30
2018-12-06T20:09:24.857Z,12.30
2018-12-06T20:11:53.172Z,12.30
2018-12-06T20:14:21.389Z,12.30
2018-12-06T20:16:49.614Z,12.30
2018-12-06T20:19:17.840Z,12.30
2018-12-06T20:21:46.073Z,12.40
2018-12-06T20:24:14.312Z,12.40
2018-12-06T20:26:42.525Z,12.30
2018-12-06T20:29:10.756Z,12.30
2018-12-06T20:31:38.991Z,12.50
2018-12-06T20:34:07.277Z,12.40
2018-12-06T20:36:35.521Z,12.40
2018-12-06T20:39:06.397Z,12.40
2018-12-06T20:41:34.603Z,12.40
2018-12-06T20:44:02.805Z,12.40
2018-12-06T20:46:31.205Z,12.50
2018-12-06T20:48:59.433Z,12.40
2018-12-06T20:51:27.734Z,12.50
2018-12-06T20:53:56.049Z,12.50
2018-12-06T20:56:24.286Z,12.60
2018-12-06T20:58:52.592Z,12.60
2018-12-06T21:01:20.821Z,12.70
2018-12-06T21:03:49.139Z,12.60
2018-12-06T21:06:17.371Z,12.60
2018-12-06T21:08:45.736Z,12.60
2018-12-06T21:11:13.948Z,12.70
2018-12-06T21:13:42.170Z,12.70
2018-12-06T21:16:10.434Z,12.80
2018-12-06T21:18:38.671Z,12.80
2018-12-06T21:21:06.877Z,12.70
2018-12-06T21:23:35.180Z,12.70
2018-12-06T21:26:03.517Z,12.80
2018-12-06T21:28:31.734Z,12.80
2018-12-06T21:31:00.069Z,12.80
2018-12-06T21:33:28.358Z,12.90
2018-12-06T21:35:56.565Z,12.80
2018-12-06T21:38:24.864Z,12.80
2018-12-06T21:40:53.092Z,12.90
2018-12-06T21:43:21.310Z,12.90
2018-12-06T21:45:49.611Z,12.90
2018-12-06T21:48:17.860Z,12.90
2018-12-06T21:50:46.165Z,13.00
2018-12-06T21:53:14.569Z,13.00
2018-12-06T21:55:42.884Z,12.90
2018-12-06T21:58:11.092Z,12.90
2018-12-06T22:00:39.497Z,12.90
2018-12-06T22:03:07.712Z,12.90
2018-12-06T22:05:36.009Z,12.90
2018-12-06T22:08:04.425Z,12.90
2018-12-06T22:10:32.643Z,12.90
2018-12-06T22:13:00.853Z,12.90
2018-12-06T22:15:29.066Z,13.00
2018-12-06T22:17:57.345Z,13.00
2018-12-06T22:20:25.655Z,13.00
2018-12-06T22:22:53.982Z,13.00
2018-12-06T22:25:22.276Z,13.00
2018-12-06T22:27:50.505Z,13.00
2018-12-06T22:30:18.813Z,13.00
2018-12-06T22:32:47.096Z,13.10
2018-12-06T22:35:15.386Z,13.10
2018-12-06T22:37:43.604Z,13.00
2018-12-06T22:40:11.827Z,13.00
2018-12-06T22:42:40.141Z,13.10
2018-12-06T22:45:20.197Z,13.10
2018-12-06T22:47:48.397Z,13.10
2018-12-06T22:50:16.618Z,13.10
2018-12-06T22:52:44.853Z,13.10
2018-12-06T22:55:13.238Z,13.10
2018-12-06T22:57:41.565Z,13.10
2018-12-06T23:00:12.896Z,13.10
2018-12-06T23:02:41.122Z,13.10
2018-12-06T23:05:09.544Z,13.10
2018-12-06T23:07:37.795Z,13.10
2018-12-06T23:10:06.469Z,13.10
2018-12-06T23:12:34.680Z,13.20
2018-12-06T23:15:03.023Z,13.20
2018-12-06T23:17:31.221Z,13.10
2018-12-06T23:19:59.432Z,13.10
2018-12-06T23:22:27.701Z,13.20
2018-12-06T23:24:56.013Z,13.10
2018-12-06T23:27:24.305Z,13.20
2018-12-06T23:29:52.615Z,13.20
2018-12-06T23:32:20.925Z,13.20
2018-12-06T23:34:49.137Z,13.20
2018-12-06T23:37:17.446Z,13.20
2018-12-06T23:39:45.669Z,13.10
2018-12-06T23:42:13.890Z,13.20
2018-12-06T23:44:42.202Z,13.20
2018-12-06T23:47:10.421Z,13.20
2018-12-06T23:49:38.633Z,13.20
2018-12-06T23:52:06.856Z,13.20
2018-12-06T23:54:35.074Z,13.30
2018-12-06T23:57:03.310Z,13.30
2018-12-06T23:59:31.559Z,13.20
